createdAt,value
2023-04-09T00:01:46.710Z,22.02
2023-04-09T00:04:15.962Z,14.07
2023-04-09T00:06:43.763Z,14.25
2023-04-09T00:09:11.540Z,16.98
2023-04-09T00:11:39.314Z,19.98
2023-04-09T00:14:07.374Z,15.93
2023-04-09T00:16:35.146Z,17.38
2023-04-09T00:19:02.856Z,18.10
2023-04-09T00:21:32.225Z,18.65
2023-04-09T00:23:59.967Z,16.33
2023-04-09T00:26:27.785Z,18.33
2023-04-09T00:28:55.626Z,19.15
2023-04-09T00:31:23.593Z,14.63
2023-04-09T00:33:51.296Z,15.85
2023-04-09T00:36:19.018Z,17.70
2023-04-09T00:38:48.729Z,16.10
2023-04-09T00:41:16.451Z,15.65
2023-04-09T00:43:44.124Z,15.80
2023-04-09T00:46:12.148Z,16.73
2023-04-09T00:48:40.505Z,16.77
2023-04-09T00:51:09.201Z,19.08
2023-04-09T00:53:36.942Z,16.33
2023-04-09T00:56:07.735Z,17.88
2023-04-09T00:58:35.821Z,19.40
2023-04-09T01:01:03.607Z,19.52
2023-04-09T01:03:31.584Z,20.48
2023-04-09T01:06:08.786Z,18.33
2023-04-09T01:08:49.149Z,15.52
2023-04-09T01:11:25.380Z,18.77
2023-04-09T01:14:05.831Z,17.75
2023-04-09T01:16:37.078Z,14.45
2023-04-09T01:19:17.751Z,15.35
2023-04-09T01:21:46.452Z,16.70
2023-04-09T01:24:22.614Z,17.90
2023-04-09T01:27:07.727Z,15.90
2023-04-09T01:29:40.544Z,18.23
2023-04-09T01:32:09.819Z,15.13
2023-04-09T01:34:38.933Z,13.75
2023-04-09T01:37:09.442Z,16.85
2023-04-09T01:39:38.906Z,15.00
2023-04-09T01:42:11.124Z,13.40
2023-04-09T01:44:41.584Z,14.70
2023-04-09T01:47:10.098Z,15.13
2023-04-09T01:49:39.549Z,15.15
2023-04-09T01:52:08.205Z,15.48
2023-04-09T01:54:35.888Z,15.55
2023-04-09T01:57:03.625Z,14.93
2023-04-09T01:59:31.314Z,15.20
2023-04-09T02:02:05.793Z,14.63
2023-04-09T02:04:36.616Z,17.98
2023-04-09T02:07:11.055Z,15.00
2023-04-09T02:09:41.828Z,16.15
2023-04-09T02:12:13.428Z,14.95
2023-04-09T02:14:42.237Z,17.25
2023-04-09T02:17:11.313Z,22.38
2023-04-09T02:19:42.294Z,20.30
2023-04-09T02:22:10.762Z,15.07
2023-04-09T02:24:38.651Z,20.30
2023-04-09T02:27:06.685Z,17.65
2023-04-09T02:29:34.738Z,16.23
2023-04-09T02:32:02.426Z,17.30
2023-04-09T02:34:31.542Z,16.67
2023-04-09T02:36:59.283Z,15.68
2023-04-09T02:39:27.127Z,19.52
2023-04-09T02:41:54.898Z,17.52
2023-04-09T02:44:22.598Z,15.75
2023-04-09T02:46:52.483Z,13.95
2023-04-09T02:49:20.229Z,14.60
2023-04-09T02:51:49.330Z,14.63
2023-04-09T02:54:17.007Z,16.00
2023-04-09T02:56:44.770Z,15.77
2023-04-09T02:59:12.434Z,13.32
2023-04-09T03:01:40.168Z,15.00
2023-04-09T03:04:07.989Z,13.10
2023-04-09T03:06:35.837Z,16.48
2023-04-09T03:09:04.992Z,16.88
2023-04-09T03:11:33.095Z,13.82
2023-04-09T03:14:01.092Z,17.10
2023-04-09T03:16:28.752Z,17.80
2023-04-09T03:18:56.466Z,16.48
2023-04-09T03:21:24.174Z,15.05
2023-04-09T03:23:51.919Z,15.25
2023-04-09T03:26:21.258Z,18.52
2023-04-09T03:28:49.073Z,16.15
2023-04-09T03:31:16.874Z,17.23
2023-04-09T03:33:44.592Z,15.80
2023-04-09T03:36:12.339Z,17.00
2023-04-09T03:38:39.990Z,16.50
2023-04-09T03:41:07.591Z,15.80
2023-04-09T03:43:36.635Z,17.30
2023-04-09T03:46:12.859Z,15.25
2023-04-09T03:48:41.321Z,14.57
2023-04-09T03:51:24.014Z,22.90
2023-04-09T03:53:51.715Z,14.85
2023-04-09T03:56:19.441Z,19.83
2023-04-09T03:58:49.805Z,16.60
2023-04-09T04:01:17.582Z,18.38
2023-04-09T04:03:45.482Z,16.95
2023-04-09T04:06:13.330Z,15.90
2023-04-09T04:08:41.022Z,14.93
2023-04-09T04:11:08.705Z,14.23
2023-04-09T04:13:36.373Z,15.40
2023-04-09T04:16:08.423Z,18.20
2023-04-09T04:18:36.148Z,17.02
2023-04-09T04:21:04.016Z,15.50
2023-04-09T04:23:31.700Z,22.77
2023-04-09T04:25:59.469Z,15.73
2023-04-09T04:28:27.231Z,14.38
2023-04-09T04:30:55.091Z,16.45
2023-04-09T04:33:24.251Z,18.38
2023-04-09T04:35:51.945Z,17.80
2023-04-09T04:38:19.625Z,17.80
2023-04-09T04:40:47.283Z,15.15
2023-04-09T04:43:15.036Z,16.35
2023-04-09T04:45:42.781Z,18.15
2023-04-09T04:48:10.510Z,16.67
2023-04-09T04:50:39.523Z,18.50
2023-04-09T04:53:08.322Z,15.07
2023-04-09T04:55:37.266Z,16.55
2023-04-09T04:58:04.952Z,18.35
2023-04-09T05:00:32.737Z,16.92
2023-04-09T05:03:00.610Z,19.38
2023-04-09T05:05:28.389Z,15.57
2023-04-09T05:07:57.418Z,19.80
2023-04-09T05:10:25.225Z,17.50
2023-04-09T05:12:52.929Z,19.23
2023-04-09T05:15:20.814Z,16.33
2023-04-09T05:17:48.511Z,20.33
2023-04-09T05:20:16.327Z,15.98
2023-04-09T05:22:44.033Z,18.70
2023-04-09T05:25:15.992Z,18.58
2023-04-09T05:27:43.815Z,16.25
2023-04-09T05:30:11.843Z,16.30
2023-04-09T05:32:39.493Z,15.52
2023-04-09T05:35:07.550Z,22.20
2023-04-09T05:37:35.316Z,17.45
2023-04-09T05:40:03.354Z,20.15
2023-04-09T05:42:32.423Z,17.02
2023-04-09T05:45:00.266Z,20.50
2023-04-09T05:47:28.751Z,17.20
2023-04-09T05:49:56.783Z,18.08
2023-04-09T05:52:24.494Z,16.52
2023-04-09T05:54:52.851Z,19.58
2023-04-09T05:57:20.653Z,17.38
2023-04-09T05:59:49.710Z,18.90
2023-04-09T06:02:17.540Z,18.92
2023-04-09T06:04:45.578Z,18.80
2023-04-09T06:07:13.342Z,22.80
2023-04-09T06:09:41.097Z,18.60
2023-04-09T06:12:08.819Z,23.50
2023-04-09T06:14:36.585Z,21.92
2023-04-09T06:17:05.648Z,26.98
2023-04-09T06:19:33.500Z,21.88
2023-04-09T06:22:01.228Z,22.00
2023-04-09T06:24:28.997Z,21.15
2023-04-09T06:26:56.730Z,19.27
2023-04-09T06:29:24.570Z,21.33
2023-04-09T06:31:52.648Z,22.13
2023-04-09T06:34:21.758Z,21.48
2023-04-09T06:36:49.457Z,23.98
2023-04-09T06:39:17.323Z,20.08
2023-04-09T06:41:45.210Z,24.75
2023-04-09T06:44:12.886Z,20.75
2023-04-09T06:46:40.863Z,20.35
2023-04-09T06:49:08.695Z,24.45
2023-04-09T06:51:37.802Z,21.80
2023-04-09T06:54:05.483Z,20.83
2023-04-09T06:56:33.249Z,28.35
2023-04-09T06:59:01.089Z,21.08
2023-04-09T07:01:29.035Z,21.05
2023-04-09T07:03:57.203Z,20.98
2023-04-09T07:06:25.214Z,32.88
2023-04-09T07:08:54.558Z,20.88
2023-04-09T07:11:22.775Z,20.48
2023-04-09T07:13:50.572Z,20.67
2023-04-09T07:16:18.316Z,17.23
2023-04-09T07:18:46.997Z,16.55
2023-04-09T07:21:14.882Z,18.48
2023-04-09T07:23:42.590Z,17.55
2023-04-09T07:26:11.737Z,17.60
2023-04-09T07:28:39.825Z,15.80
2023-04-09T07:31:07.817Z,17.35
2023-04-09T07:33:35.621Z,14.68
2023-04-09T07:36:03.487Z,13.25
2023-04-09T07:38:31.636Z,13.25
2023-04-09T07:40:59.378Z,11.70
2023-04-09T07:43:28.552Z,12.10
2023-04-09T07:45:56.299Z,10.80
2023-04-09T07:48:24.100Z,10.10
2023-04-09T07:50:51.918Z,9.77
2023-04-09T07:53:19.664Z,11.60
2023-04-09T07:55:47.533Z,11.47
2023-04-09T07:58:15.739Z,10.60
2023-04-09T08:00:45.427Z,9.37
2023-04-09T08:03:14.127Z,9.43
2023-04-09T08:05:42.010Z,10.60
2023-04-09T08:08:09.853Z,10.33
2023-04-09T08:10:37.803Z,12.53
2023-04-09T08:13:05.960Z,12.20
2023-04-09T08:15:33.781Z,13.73
2023-04-09T08:18:04.218Z,10.50
2023-04-09T08:20:33.141Z,11.63
2023-04-09T08:23:00.895Z,10.77
2023-04-09T08:25:28.616Z,11.40
2023-04-09T08:27:56.905Z,13.10
2023-04-09T08:30:24.754Z,10.57
2023-04-09T08:32:53.225Z,9.40
2023-04-09T08:35:22.680Z,8.43
2023-04-09T08:37:51.163Z,10.93
2023-04-09T08:40:19.830Z,10.60
2023-04-09T08:42:50.887Z,10.47
2023-04-09T08:45:18.770Z,8.80
2023-04-09T08:47:50.526Z,10.60
2023-04-09T08:50:18.513Z,10.60
2023-04-09T08:52:49.163Z,12.30
2023-04-09T08:55:16.889Z,11.77
2023-04-09T08:57:44.600Z,14.47
2023-04-09T09:00:13.531Z,11.50
2023-04-09T09:03:05.358Z,13.00
2023-04-09T09:05:40.949Z,13.80
2023-04-09T09:08:25.825Z,12.13
2023-04-09T09:10:53.847Z,11.10
2023-04-09T09:13:24.063Z,12.07
2023-04-09T09:15:55.216Z,10.57
2023-04-09T09:18:38.200Z,10.90
2023-04-09T09:21:11.934Z,10.00
2023-04-09T09:23:42.441Z,11.03
2023-04-09T09:26:14.627Z,10.77
2023-04-09T09:28:42.613Z,12.40
2023-04-09T09:31:12.068Z,9.57
2023-04-09T09:33:40.513Z,13.53
2023-04-09T09:36:09.895Z,12.50
2023-04-09T09:38:55.838Z,12.73
2023-04-09T09:41:24.455Z,13.37
2023-04-09T09:43:52.768Z,11.57
2023-04-09T09:46:22.399Z,9.37
2023-04-09T09:48:51.185Z,12.00
2023-04-09T09:51:20.768Z,12.90
2023-04-09T09:53:52.356Z,12.63
2023-04-09T09:56:24.973Z,11.00
2023-04-09T09:59:01.678Z,10.83
2023-04-09T10:01:29.807Z,7.53
2023-04-09T10:04:01.480Z,9.13
2023-04-09T10:06:30.298Z,6.70
2023-04-09T10:09:01.315Z,7.93
2023-04-09T10:11:31.564Z,8.33
2023-04-09T10:13:59.821Z,7.10
2023-04-09T10:16:28.610Z,7.40
2023-04-09T10:18:57.266Z,7.77
2023-04-09T10:21:35.743Z,8.17
2023-04-09T10:24:06.121Z,9.43
2023-04-09T10:26:36.547Z,7.27
2023-04-09T10:29:06.915Z,8.00
2023-04-09T10:31:47.634Z,10.97
2023-04-09T10:34:17.617Z,6.40
2023-04-09T10:36:45.615Z,6.27
2023-04-09T10:39:14.645Z,6.43
2023-04-09T10:41:45.915Z,7.07
2023-04-09T10:44:23.740Z,8.73
2023-04-09T10:46:54.779Z,8.40
2023-04-09T10:49:23.707Z,9.37
2023-04-09T10:51:55.269Z,7.80
2023-04-09T10:54:46.666Z,8.70
2023-04-09T10:57:17.945Z,7.63
2023-04-09T10:59:47.173Z,11.30
2023-04-09T11:02:54.101Z,7.70
2023-04-09T11:05:29.346Z,5.90
2023-04-09T11:08:04.180Z,7.17
2023-04-09T11:10:32.627Z,7.73
2023-04-09T11:13:02.470Z,7.70
2023-04-09T11:15:30.636Z,7.63
2023-04-09T11:17:58.647Z,9.07
2023-04-09T11:20:27.719Z,9.27
2023-04-09T11:22:56.567Z,8.60
2023-04-09T11:25:26.321Z,7.13
2023-04-09T11:27:54.804Z,8.50
2023-04-09T11:30:24.087Z,13.80
2023-04-09T11:32:52.360Z,8.00
2023-04-09T11:35:22.263Z,10.13
2023-04-09T11:37:52.265Z,11.90
2023-04-09T11:40:21.923Z,8.57
2023-04-09T11:42:51.582Z,9.03
2023-04-09T11:45:20.547Z,8.60
2023-04-09T11:47:50.395Z,8.47
2023-04-09T11:50:18.971Z,8.00
2023-04-09T11:52:47.042Z,7.97
2023-04-09T11:55:30.492Z,7.60
2023-04-09T11:58:01.087Z,7.93
2023-04-09T12:00:30.035Z,7.67
2023-04-09T12:03:03.647Z,8.63
2023-04-09T12:05:33.825Z,7.53
2023-04-09T12:08:03.080Z,7.40
2023-04-09T12:10:32.346Z,7.53
2023-04-09T12:13:04.303Z,8.50
2023-04-09T12:15:34.604Z,6.97
2023-04-09T12:18:04.463Z,8.63
2023-04-09T12:20:34.727Z,7.83
2023-04-09T12:23:04.556Z,9.63
2023-04-09T12:25:32.656Z,8.13
2023-04-09T12:28:00.521Z,8.27
2023-04-09T12:30:43.936Z,8.30
2023-04-09T12:33:13.045Z,9.80
2023-04-09T12:35:41.016Z,8.27
2023-04-09T12:38:08.953Z,8.27
2023-04-09T12:40:37.015Z,7.97
2023-04-09T12:43:04.983Z,9.67
2023-04-09T12:45:33.126Z,7.60
2023-04-09T12:48:00.851Z,10.20
2023-04-09T12:50:30.046Z,9.30
2023-04-09T12:52:57.805Z,10.33
2023-04-09T12:55:25.508Z,8.70
2023-04-09T12:57:53.175Z,9.07
2023-04-09T13:00:20.911Z,8.57
2023-04-09T13:02:48.731Z,9.07
2023-04-09T13:05:16.423Z,8.80
2023-04-09T13:07:45.717Z,9.17
2023-04-09T13:10:13.417Z,7.00
2023-04-09T13:12:41.284Z,7.73
2023-04-09T13:15:09.253Z,6.90
2023-04-09T13:17:37.029Z,7.07
2023-04-09T13:20:05.443Z,7.57
2023-04-09T13:22:33.339Z,6.73
2023-04-09T13:25:02.543Z,8.80
2023-04-09T13:27:30.375Z,9.60
2023-04-09T13:29:58.348Z,7.30
2023-04-09T13:32:26.130Z,8.10
2023-04-09T13:34:55.657Z,7.67
2023-04-09T13:37:23.402Z,6.93
2023-04-09T13:39:51.320Z,7.60
2023-04-09T13:42:20.371Z,7.60
2023-04-09T13:44:48.050Z,7.87
2023-04-09T13:47:18.073Z,7.40
2023-04-09T13:49:45.820Z,7.30
2023-04-09T13:52:14.631Z,6.07
2023-04-09T13:54:42.399Z,7.63
2023-04-09T13:57:10.352Z,8.13
2023-04-09T13:59:41.638Z,7.87
2023-04-09T14:02:10.394Z,8.23
2023-04-09T14:04:38.370Z,7.70
2023-04-09T14:07:06.153Z,7.17
2023-04-09T14:09:33.865Z,6.40
2023-04-09T14:12:01.845Z,6.77
2023-04-09T14:14:29.647Z,7.67
2023-04-09T14:16:58.699Z,6.70
2023-04-09T14:19:26.397Z,8.03
2023-04-09T14:21:55.726Z,9.60
2023-04-09T14:24:27.829Z,5.67
2023-04-09T14:26:55.537Z,7.60
2023-04-09T14:29:23.182Z,7.33
2023-04-09T14:31:51.756Z,6.67
2023-04-09T14:34:21.080Z,8.30
2023-04-09T14:36:48.802Z,6.50
2023-04-09T14:39:16.513Z,8.57
2023-04-09T14:41:44.225Z,7.00
2023-04-09T14:44:11.845Z,8.30
2023-04-09T14:46:39.830Z,6.57
2023-04-09T14:49:07.541Z,7.60
2023-04-09T14:51:37.289Z,6.60
2023-04-09T14:54:05.149Z,10.60
2023-04-09T14:56:32.848Z,8.43
2023-04-09T14:59:00.542Z,8.27
2023-04-09T15:01:28.754Z,9.43
2023-04-09T15:03:57.008Z,8.83
2023-04-09T15:06:24.879Z,8.37
2023-04-09T15:08:54.106Z,10.43
2023-04-09T15:11:22.796Z,8.63
2023-04-09T15:13:50.763Z,8.27
2023-04-09T15:16:22.612Z,9.33
2023-04-09T15:18:52.112Z,9.30
2023-04-09T15:21:20.700Z,8.43
2023-04-09T15:23:48.496Z,7.90
2023-04-09T15:26:17.525Z,8.57
2023-04-09T15:28:46.100Z,8.10
2023-04-09T15:31:14.036Z,7.30
2023-04-09T15:33:43.665Z,9.37
2023-04-09T15:36:11.798Z,8.37
2023-04-09T15:38:39.621Z,8.93
2023-04-09T15:41:07.342Z,8.27
2023-04-09T15:43:36.498Z,6.57
2023-04-09T15:46:09.410Z,7.43
2023-04-09T15:48:37.354Z,9.10
2023-04-09T15:51:05.852Z,6.47
2023-04-09T15:53:33.528Z,7.33
2023-04-09T15:56:01.198Z,7.63
2023-04-09T15:58:28.872Z,8.77
2023-04-09T16:00:57.950Z,9.03
2023-04-09T16:03:25.832Z,8.30
2023-04-09T16:05:53.542Z,8.50
2023-04-09T16:08:21.279Z,7.27
2023-04-09T16:10:48.968Z,8.20
2023-04-09T16:13:16.620Z,8.60
2023-04-09T16:15:45.384Z,9.40
2023-04-09T16:18:14.440Z,9.80
2023-04-09T16:20:42.249Z,7.83
2023-04-09T16:23:09.951Z,9.40
2023-04-09T16:25:37.713Z,9.73
2023-04-09T16:28:05.949Z,7.90
2023-04-09T16:30:33.889Z,8.47
2023-04-09T16:33:01.605Z,9.60
2023-04-09T16:35:30.897Z,7.60
2023-04-09T16:37:58.609Z,8.67
2023-04-09T16:40:26.460Z,10.00
2023-04-09T16:42:54.260Z,9.10
2023-04-09T16:45:22.151Z,7.00
2023-04-09T16:47:53.814Z,8.47
2023-04-09T16:50:21.875Z,7.10
2023-04-09T16:52:50.977Z,8.20
2023-04-09T16:55:18.691Z,8.10
2023-04-09T16:57:46.400Z,9.20
2023-04-09T17:00:17.193Z,6.70
2023-04-09T17:02:45.908Z,8.03
2023-04-09T17:05:13.853Z,6.83
2023-04-09T17:07:41.585Z,7.97
2023-04-09T17:10:11.510Z,8.30
2023-04-09T17:12:39.854Z,9.10
2023-04-09T17:15:08.757Z,10.47
2023-04-09T17:17:37.328Z,7.67
2023-04-09T17:20:05.716Z,8.23
2023-04-09T17:22:35.058Z,6.97
2023-04-09T17:25:04.256Z,8.43
2023-04-09T17:27:33.328Z,7.70
2023-04-09T17:30:01.812Z,7.13
2023-04-09T17:32:29.676Z,8.33
2023-04-09T17:34:59.500Z,7.50
2023-04-09T17:37:29.121Z,7.60
2023-04-09T17:39:56.792Z,8.80
2023-04-09T17:42:24.515Z,6.30
2023-04-09T17:44:53.656Z,7.27
2023-04-09T17:47:21.504Z,8.00
2023-04-09T17:49:49.277Z,7.70
2023-04-09T17:52:16.981Z,9.67
2023-04-09T17:54:45.707Z,7.73
2023-04-09T17:57:13.471Z,8.30
2023-04-09T17:59:41.120Z,10.23
2023-04-09T18:02:10.516Z,9.00
2023-04-09T18:04:38.657Z,7.47
2023-04-09T18:07:06.593Z,7.80
2023-04-09T18:09:34.435Z,7.97
2023-04-09T18:12:02.843Z,9.07
2023-04-09T18:14:32.396Z,8.90
2023-04-09T18:17:01.068Z,8.97
2023-04-09T18:19:30.265Z,8.27
2023-04-09T18:21:57.955Z,8.43
2023-04-09T18:24:26.397Z,8.17
2023-04-09T18:26:55.008Z,8.27
2023-04-09T18:29:22.705Z,8.03
2023-04-09T18:31:50.513Z,9.80
2023-04-09T18:34:19.204Z,11.50
2023-04-09T18:36:49.016Z,8.93
2023-04-09T18:39:16.793Z,11.30
2023-04-09T18:41:44.710Z,7.70
2023-04-09T18:44:12.357Z,9.63
2023-04-09T18:46:40.144Z,10.90
2023-04-09T18:49:07.907Z,8.30
2023-04-09T18:51:35.626Z,9.07
2023-04-09T18:54:04.825Z,12.40
2023-04-09T18:56:32.470Z,8.70
2023-04-09T18:59:00.415Z,8.47
2023-04-09T19:01:28.280Z,11.47
2023-04-09T19:03:56.233Z,8.80
2023-04-09T19:06:25.530Z,10.50
2023-04-09T19:08:57.876Z,13.03
2023-04-09T19:11:27.057Z,9.43
2023-04-09T19:13:54.818Z,8.90
2023-04-09T19:16:22.803Z,10.97
2023-04-09T19:18:50.656Z,10.50
2023-04-09T19:21:18.624Z,10.23
2023-04-09T19:23:47.359Z,10.50
2023-04-09T19:26:15.040Z,10.53
2023-04-09T19:28:44.028Z,9.97
2023-04-09T19:31:14.270Z,11.40
2023-04-09T19:33:42.070Z,10.40
2023-04-09T19:36:09.748Z,15.63
2023-04-09T19:38:37.581Z,10.50
2023-04-09T19:41:05.670Z,10.80
2023-04-09T19:43:33.430Z,12.90
2023-04-09T19:46:05.843Z,11.67
2023-04-09T19:48:33.563Z,13.27
2023-04-09T19:51:01.947Z,9.98
2023-04-09T19:53:30.945Z,12.65
2023-04-09T19:55:58.645Z,13.00
2023-04-09T19:58:26.375Z,10.40
2023-04-09T20:00:54.935Z,11.88
2023-04-09T20:03:24.208Z,12.93
2023-04-09T20:05:52.018Z,14.07
2023-04-09T20:08:19.682Z,13.75
2023-04-09T20:10:47.735Z,13.75
2023-04-09T20:13:15.503Z,10.13
2023-04-09T20:15:43.658Z,12.45
2023-04-09T20:18:11.464Z,10.85
2023-04-09T20:20:40.628Z,14.02
2023-04-09T20:23:08.347Z,10.45
2023-04-09T20:25:36.699Z,12.50
2023-04-09T20:28:04.775Z,14.73
2023-04-09T20:30:32.932Z,16.70
2023-04-09T20:33:01.320Z,14.27
2023-04-09T20:35:29.245Z,14.32
2023-04-09T20:37:58.435Z,12.68
2023-04-09T20:40:26.418Z,11.40
2023-04-09T20:42:54.173Z,13.27
2023-04-09T20:45:22.244Z,13.80
2023-04-09T20:47:51.068Z,11.35
2023-04-09T20:50:19.528Z,11.95
2023-04-09T20:52:47.568Z,13.00
2023-04-09T20:55:16.727Z,13.52
2023-04-09T20:57:44.393Z,16.25
2023-04-09T21:00:13.283Z,11.68
2023-04-09T21:02:41.884Z,13.65
2023-04-09T21:05:21.725Z,11.10
2023-04-09T21:07:51.155Z,12.10
2023-04-09T21:10:20.317Z,15.43
2023-04-09T21:12:48.170Z,14.55
2023-04-09T21:15:16.071Z,13.40
2023-04-09T21:17:43.894Z,13.20
2023-04-09T21:20:12.336Z,13.50
2023-04-09T21:22:39.989Z,11.38
2023-04-09T21:25:08.441Z,14.25
2023-04-09T21:27:37.483Z,10.57
2023-04-09T21:30:05.979Z,12.32
2023-04-09T21:32:34.007Z,12.38
2023-04-09T21:35:01.811Z,12.20
2023-04-09T21:37:31.842Z,13.38
2023-04-09T21:39:59.525Z,19.10
2023-04-09T21:42:27.436Z,13.38
2023-04-09T21:44:56.638Z,15.57
2023-04-09T21:47:24.732Z,14.50
2023-04-09T21:49:52.465Z,13.15
2023-04-09T21:52:20.321Z,15.20
2023-04-09T21:54:48.004Z,12.27
2023-04-09T21:57:16.017Z,13.68
2023-04-09T21:59:43.882Z,13.90
2023-04-09T22:02:13.088Z,14.15
2023-04-09T22:04:42.487Z,16.35
2023-04-09T22:07:10.989Z,15.55
2023-04-09T22:09:39.279Z,13.95
2023-04-09T22:12:07.182Z,15.82
2023-04-09T22:14:34.922Z,14.27
2023-04-09T22:17:03.403Z,13.95
2023-04-09T22:19:33.197Z,16.20
2023-04-09T22:22:08.931Z,14.50
2023-04-09T22:24:36.599Z,14.30
2023-04-09T22:27:04.313Z,13.73
2023-04-09T22:29:31.992Z,14.90
2023-04-09T22:31:59.725Z,14.80
2023-04-09T22:34:27.613Z,13.77
2023-04-09T22:36:56.650Z,11.90
2023-04-09T22:39:24.296Z,14.30
2023-04-09T22:41:52.087Z,15.63
2023-04-09T22:44:19.787Z,13.50
2023-04-09T22:46:47.525Z,14.32
2023-04-09T22:49:15.836Z,12.85
2023-04-09T22:51:43.605Z,14.90
2023-04-09T22:54:13.076Z,14.95
2023-04-09T22:56:40.727Z,18.02
2023-04-09T22:59:08.407Z,14.77
2023-04-09T23:01:36.766Z,16.60
2023-04-09T23:04:04.668Z,15.40
2023-04-09T23:06:32.358Z,14.25
2023-04-09T23:09:00.457Z,14.77
2023-04-09T23:11:30.542Z,13.95
2023-04-09T23:13:58.244Z,16.10
2023-04-09T23:16:26.441Z,11.73
2023-04-09T23:18:54.540Z,17.45
2023-04-09T23:21:22.617Z,28.90
2023-04-09T23:23:50.357Z,16.38
2023-04-09T23:26:18.019Z,18.67
2023-04-09T23:28:47.060Z,17.77
2023-04-09T23:31:14.742Z,17.02
2023-04-09T23:33:42.430Z,19.55
2023-04-09T23:36:10.747Z,20.33
2023-04-09T23:38:40.329Z,17.38
2023-04-09T23:41:08.151Z,19.80
2023-04-09T23:43:35.968Z,16.95
2023-04-09T23:46:05.428Z,20.42
2023-04-09T23:48:33.218Z,18.50
2023-04-09T23:51:00.949Z,19.48
2023-04-09T23:53:28.632Z,15.05
2023-04-09T23:55:56.377Z,16.90
2023-04-09T23:58:24.131Z,14.40
